sensor_id;sensor_type;location;lat;lon;timestamp;temperature;humidity
7216;DHT22;3649;48.798;9.798;2022-11-20T00:01:17;11.30;99.90
7216;DHT22;3649;48.798;9.798;2022-11-20T00:03:44;11.20;99.90
7216;DHT22;3649;48.798;9.798;2022-11-20T00:06:14;11.30;99.90
7216;DHT22;3649;48.798;9.798;2022-11-20T00:08:40;11.30;99.90
7216;DHT22;3649;48.798;9.798;2022-11-20T00:11:19;11.20;99.90
7216;DHT22;3649;48.798;9.798;2022-11-20T00:13:48;11.10;99.90
7216;DHT22;3649;48.798;9.798;2022-11-20T00:16:17;11.10;99.90
7216;DHT22;3649;48.798;9.798;2022-11-20T00:18:45;11.20;99.90
7216;DHT22;3649;48.798;9.798;2022-11-20T00:21:18;11.10;99.90
7216;DHT22;3649;48.798;9.798;2022-11-20T00:23:49;11.10;99.90
7216;DHT22;3649;48.798;9.798;2022-11-20T00:26:18;11.00;99.90
7216;DHT22;3649;48.798;9.798;2022-11-20T00:28:50;11.10;99.90
7216;DHT22;3649;48.798;9.798;2022-11-20T00:31:18;11.10;99.90
7216;DHT22;3649;48.798;9.798;2022-11-20T00:33:45;11.10;99.90
7216;DHT22;3649;48.798;9.798;2022-11-20T00:36:20;11.00;99.90
7216;DHT22;3649;48.798;9.798;2022-11-20T00:38:51;11.00;99.90
7216;DHT22;3649;48.798;9.798;2022-11-20T00:41:18;11.00;99.90
7216;DHT22;3649;48.798;9.798;2022-11-20T00:43:45;11.00;99.90
7216;DHT22;3649;48.798;9.798;2022-11-20T00:46:16;11.00;99.90
7216;DHT22;3649;48.798;9.798;2022-11-20T00:48:44;11.80;99.90
7216;DHT22;3649;48.798;9.798;2022-11-20T00:51:13;10.90;99.90
7216;DHT22;3649;48.798;9.798;2022-11-20T00:53:41;10.90;99.90
7216;DHT22;3649;48.798;9.798;2022-11-20T00:56:11;10.90;99.90
7216;DHT22;3649;48.798;9.798;2022-11-20T00:58:40;11.00;99.90
7216;DHT22;3649;48.798;9.798;2022-11-20T01:01:13;11.00;99.90
7216;DHT22;3649;48.798;9.798;2022-11-20T01:03:49;10.90;99.90
7216;DHT22;3649;48.798;9.798;2022-11-20T01:06:24;10.90;99.90
7216;DHT22;3649;48.798;9.798;2022-11-20T01:08:54;10.90;99.90
7216;DHT22;3649;48.798;9.798;2022-11-20T01:11:24;10.80;99.90
7216;DHT22;3649;48.798;9.798;2022-11-20T01:13:52;10.90;99.90
7216;DHT22;3649;48.798;9.798;2022-11-20T01:16:21;10.80;99.90
7216;DHT22;3649;48.798;9.798;2022-11-20T01:18:50;10.80;99.90
7216;DHT22;3649;48.798;9.798;2022-11-20T01:21:27;10.90;99.90
7216;DHT22;3649;48.798;9.798;2022-11-20T01:23:54;10.90;99.90
7216;DHT22;3649;48.798;9.798;2022-11-20T01:26:24;10.90;99.90
7216;DHT22;3649;48.798;9.798;2022-11-20T01:28:51;10.90;99.90
7216;DHT22;3649;48.798;9.798;2022-11-20T01:31:27;10.80;99.90
7216;DHT22;3649;48.798;9.798;2022-11-20T01:33:56;10.80;99.90
7216;DHT22;3649;48.798;9.798;2022-11-20T01:36:26;10.80;99.90
7216;DHT22;3649;48.798;9.798;2022-11-20T01:38:55;10.80;99.90
7216;DHT22;3649;48.798;9.798;2022-11-20T01:41:23;10.80;99.90
7216;DHT22;3649;48.798;9.798;2022-11-20T01:44:12;9.90;99.90
7216;DHT22;3649;48.798;9.798;2022-11-20T01:47:00;10.90;99.90
7216;DHT22;3649;48.798;9.798;2022-11-20T01:49:40;10.70;99.90
7216;DHT22;3649;48.798;9.798;2022-11-20T01:52:20;10.70;99.90
7216;DHT22;3649;48.798;9.798;2022-11-20T01:54:53;10.70;99.90
7216;DHT22;3649;48.798;9.798;2022-11-20T01:57:23;10.70;99.90
7216;DHT22;3649;48.798;9.798;2022-11-20T01:59:56;10.80;99.90
7216;DHT22;3649;48.798;9.798;2022-11-20T02:02:25;10.70;99.90
7216;DHT22;3649;48.798;9.798;2022-11-20T02:04:54;10.80;99.90
7216;DHT22;3649;48.798;9.798;2022-11-20T02:07:23;10.80;99.90
7216;DHT22;3649;48.798;9.798;2022-11-20T02:09:51;10.70;99.90
7216;DHT22;3649;48.798;9.798;2022-11-20T02:12:24;11.00;99.90
7216;DHT22;3649;48.798;9.798;2022-11-20T02:15:09;10.90;99.90
7216;DHT22;3649;48.798;9.798;2022-11-20T02:17:36;10.70;99.90
7216;DHT22;3649;48.798;9.798;2022-11-20T02:20:04;10.70;99.90
7216;DHT22;3649;48.798;9.798;2022-11-20T02:22:35;10.70;99.90
7216;DHT22;3649;48.798;9.798;2022-11-20T02:25:06;10.70;99.90
7216;DHT22;3649;48.798;9.798;2022-11-20T02:27:34;10.70;99.90
7216;DHT22;3649;48.798;9.798;2022-11-20T02:30:04;10.70;99.90
7216;DHT22;3649;48.798;9.798;2022-11-20T02:32:35;10.70;99.90
7216;DHT22;3649;48.798;9.798;2022-11-20T02:37:48;10.70;99.90
7216;DHT22;3649;48.798;9.798;2022-11-20T02:40:15;10.70;99.90
7216;DHT22;3649;48.798;9.798;2022-11-20T02:42:42;10.70;99.90
7216;DHT22;3649;48.798;9.798;2022-11-20T02:45:09;10.70;99.90
7216;DHT22;3649;48.798;9.798;2022-11-20T02:47:36;10.60;99.90
7216;DHT22;3649;48.798;9.798;2022-11-20T02:50:04;10.60;99.90
7216;DHT22;3649;48.798;9.798;2022-11-20T02:52:31;10.60;99.90
7216;DHT22;3649;48.798;9.798;2022-11-20T02:54:58;10.70;99.90
7216;DHT22;3649;48.798;9.798;2022-11-20T02:57:25;10.90;99.90
7216;DHT22;3649;48.798;9.798;2022-11-20T02:59:51;10.70;99.90
7216;DHT22;3649;48.798;9.798;2022-11-20T03:02:18;10.70;99.90
7216;DHT22;3649;48.798;9.798;2022-11-20T03:04:45;10.70;99.90
7216;DHT22;3649;48.798;9.798;2022-11-20T03:07:12;10.70;99.90
7216;DHT22;3649;48.798;9.798;2022-11-20T03:09:39;10.60;99.90
7216;DHT22;3649;48.798;9.798;2022-11-20T03:12:05;10.60;99.90
7216;DHT22;3649;48.798;9.798;2022-11-20T03:14:32;10.60;99.90
7216;DHT22;3649;48.798;9.798;2022-11-20T03:17:00;10.60;99.90
7216;DHT22;3649;48.798;9.798;2022-11-20T03:19:26;10.70;99.90
7216;DHT22;3649;48.798;9.798;2022-11-20T03:21:53;10.70;99.90
7216;DHT22;3649;48.798;9.798;2022-11-20T03:24:20;10.60;99.90
7216;DHT22;3649;48.798;9.798;2022-11-20T03:26:47;10.70;99.90
7216;DHT22;3649;48.798;9.798;2022-11-20T03:29:14;10.70;99.90
7216;DHT22;3649;48.798;9.798;2022-11-20T03:31:41;10.60;99.90
7216;DHT22;3649;48.798;9.798;2022-11-20T03:34:09;10.70;99.90
7216;DHT22;3649;48.798;9.798;2022-11-20T03:36:41;10.70;99.90
7216;DHT22;3649;48.798;9.798;2022-11-20T03:39:08;10.60;99.90
7216;DHT22;3649;48.798;9.798;2022-11-20T03:41:37;10.70;99.90
7216;DHT22;3649;48.798;9.798;2022-11-20T03:44:06;10.60;99.90
7216;DHT22;3649;48.798;9.798;2022-11-20T03:46:34;10.70;99.90
7216;DHT22;3649;48.798;9.798;2022-11-20T03:49:01;10.50;99.90
7216;DHT22;3649;48.798;9.798;2022-11-20T03:51:30;10.50;99.90
7216;DHT22;3649;48.798;9.798;2022-11-20T03:54:00;10.50;99.90
7216;DHT22;3649;48.798;9.798;2022-11-20T03:56:29;10.60;99.90
7216;DHT22;3649;48.798;9.798;2022-11-20T03:58:56;10.60;99.90
7216;DHT22;3649;48.798;9.798;2022-11-20T04:01:31;10.50;99.90
7216;DHT22;3649;48.798;9.798;2022-11-20T04:03:59;10.50;99.90
7216;DHT22;3649;48.798;9.798;2022-11-20T04:06:28;10.60;99.90
7216;DHT22;3649;48.798;9.798;2022-11-20T04:08:56;10.50;99.90
7216;DHT22;3649;48.798;9.798;2022-11-20T04:11:25;10.50;99.90
7216;DHT22;3649;48.798;9.798;2022-11-20T04:13:57;10.40;99.90
7216;DHT22;3649;48.798;9.798;2022-11-20T04:16:25;10.40;99.90
7216;DHT22;3649;48.798;9.798;2022-11-20T04:18:54;10.30;99.90
7216;DHT22;3649;48.798;9.798;2022-11-20T04:21:22;10.40;99.90
7216;DHT22;3649;48.798;9.798;2022-11-20T04:23:50;10.40;99.90
7216;DHT22;3649;48.798;9.798;2022-11-20T04:26:17;10.40;99.90
7216;DHT22;3649;48.798;9.798;2022-11-20T04:28:44;10.40;99.90
7216;DHT22;3649;48.798;9.798;2022-11-20T04:31:13;10.40;99.90
7216;DHT22;3649;48.798;9.798;2022-11-20T04:33:40;10.40;99.90
7216;DHT22;3649;48.798;9.798;2022-11-20T04:36:15;10.40;99.90
7216;DHT22;3649;48.798;9.798;2022-11-20T04:38:42;10.50;99.90
7216;DHT22;3649;48.798;9.798;2022-11-20T04:41:16;10.50;99.90
7216;DHT22;3649;48.798;9.798;2022-11-20T04:43:48;10.40;99.90
7216;DHT22;3649;48.798;9.798;2022-11-20T04:46:16;10.40;99.90
7216;DHT22;3649;48.798;9.798;2022-11-20T04:48:43;10.40;99.90
7216;DHT22;3649;48.798;9.798;2022-11-20T04:51:11;10.40;99.90
7216;DHT22;3649;48.798;9.798;2022-11-20T04:53:38;10.40;99.90
7216;DHT22;3649;48.798;9.798;2022-11-20T04:56:07;10.40;99.90
7216;DHT22;3649;48.798;9.798;2022-11-20T04:58:34;10.40;99.90
7216;DHT22;3649;48.798;9.798;2022-11-20T05:01:15;10.40;99.90
7216;DHT22;3649;48.798;9.798;2022-11-20T05:03:44;10.40;99.90
7216;DHT22;3649;48.798;9.798;2022-11-20T05:06:13;10.40;99.90
7216;DHT22;3649;48.798;9.798;2022-11-20T05:08:40;10.40;99.90
7216;DHT22;3649;48.798;9.798;2022-11-20T05:11:09;10.40;99.90
7216;DHT22;3649;48.798;9.798;2022-11-20T05:13:37;10.40;99.90
7216;DHT22;3649;48.798;9.798;2022-11-20T05:16:06;10.40;99.90
7216;DHT22;3649;48.798;9.798;2022-11-20T05:18:35;10.40;99.90
7216;DHT22;3649;48.798;9.798;2022-11-20T05:21:02;10.50;99.90
7216;DHT22;3649;48.798;9.798;2022-11-20T05:23:30;10.40;99.90
7216;DHT22;3649;48.798;9.798;2022-11-20T05:25:58;10.50;99.90
7216;DHT22;3649;48.798;9.798;2022-11-20T05:28:26;10.50;99.90
7216;DHT22;3649;48.798;9.798;2022-11-20T05:30:53;10.40;99.90
7216;DHT22;3649;48.798;9.798;2022-11-20T05:33:20;10.40;99.90
7216;DHT22;3649;48.798;9.798;2022-11-20T05:35:48;10.40;99.90
7216;DHT22;3649;48.798;9.798;2022-11-20T05:38:15;10.40;99.90
7216;DHT22;3649;48.798;9.798;2022-11-20T05:40:42;10.40;99.90
7216;DHT22;3649;48.798;9.798;2022-11-20T05:43:09;10.50;99.90
7216;DHT22;3649;48.798;9.798;2022-11-20T05:45:36;10.50;99.90
7216;DHT22;3649;48.798;9.798;2022-11-20T05:48:03;10.40;99.90
7216;DHT22;3649;48.798;9.798;2022-11-20T05:50:30;10.40;99.90
7216;DHT22;3649;48.798;9.798;2022-11-20T05:53:00;10.40;99.90
7216;DHT22;3649;48.798;9.798;2022-11-20T05:55:27;11.40;99.90
7216;DHT22;3649;48.798;9.798;2022-11-20T05:57:55;10.40;99.90
7216;DHT22;3649;48.798;9.798;2022-11-20T06:00:22;10.70;99.90
7216;DHT22;3649;48.798;9.798;2022-11-20T06:02:48;10.40;99.90
7216;DHT22;3649;48.798;9.798;2022-11-20T06:05:15;10.50;99.90
7216;DHT22;3649;48.798;9.798;2022-11-20T06:07:42;10.60;99.90
7216;DHT22;3649;48.798;9.798;2022-11-20T06:10:09;10.50;99.90
7216;DHT22;3649;48.798;9.798;2022-11-20T06:12:36;10.50;99.90
7216;DHT22;3649;48.798;9.798;2022-11-20T06:15:04;10.60;99.90
7216;DHT22;3649;48.798;9.798;2022-11-20T06:17:31;10.40;99.90
7216;DHT22;3649;48.798;9.798;2022-11-20T06:19:58;10.60;99.90
7216;DHT22;3649;48.798;9.798;2022-11-20T06:22:25;10.50;99.90
7216;DHT22;3649;48.798;9.798;2022-11-20T06:24:52;10.50;99.90
7216;DHT22;3649;48.798;9.798;2022-11-20T06:27:18;10.40;99.90
7216;DHT22;3649;48.798;9.798;2022-11-20T06:29:45;10.40;99.90
7216;DHT22;3649;48.798;9.798;2022-11-20T06:32:12;10.40;99.90
7216;DHT22;3649;48.798;9.798;2022-11-20T06:34:39;10.40;99.90
7216;DHT22;3649;48.798;9.798;2022-11-20T06:37:06;10.50;99.90
7216;DHT22;3649;48.798;9.798;2022-11-20T06:39:32;10.50;99.90
7216;DHT22;3649;48.798;9.798;2022-11-20T06:41:59;10.40;99.90
7216;DHT22;3649;48.798;9.798;2022-11-20T06:44:26;10.50;99.90
7216;DHT22;3649;48.798;9.798;2022-11-20T06:46:53;10.50;99.90
7216;DHT22;3649;48.798;9.798;2022-11-20T06:49:19;11.50;99.90
7216;DHT22;3649;48.798;9.798;2022-11-20T06:51:47;10.50;99.90
7216;DHT22;3649;48.798;9.798;2022-11-20T06:54:14;10.50;99.90
7216;DHT22;3649;48.798;9.798;2022-11-20T06:56:40;10.50;99.90
7216;DHT22;3649;48.798;9.798;2022-11-20T06:59:07;10.50;99.90
7216;DHT22;3649;48.798;9.798;2022-11-20T07:01:34;10.50;99.90
7216;DHT22;3649;48.798;9.798;2022-11-20T07:04:01;10.50;99.90
7216;DHT22;3649;48.798;9.798;2022-11-20T07:06:30;10.50;99.90
7216;DHT22;3649;48.798;9.798;2022-11-20T07:08:57;10.50;99.90
7216;DHT22;3649;48.798;9.798;2022-11-20T07:11:24;10.60;99.90
7216;DHT22;3649;48.798;9.798;2022-11-20T07:13:51;10.60;99.90
7216;DHT22;3649;48.798;9.798;2022-11-20T07:16:18;10.60;99.90
7216;DHT22;3649;48.798;9.798;2022-11-20T07:18:45;10.50;99.90
7216;DHT22;3649;48.798;9.798;2022-11-20T07:21:16;10.60;99.90
7216;DHT22;3649;48.798;9.798;2022-11-20T07:23:43;10.60;99.90
7216;DHT22;3649;48.798;9.798;2022-11-20T07:26:10;10.60;99.90
7216;DHT22;3649;48.798;9.798;2022-11-20T07:28:38;10.60;99.90
7216;DHT22;3649;48.798;9.798;2022-11-20T07:31:05;10.60;99.90
7216;DHT22;3649;48.798;9.798;2022-11-20T07:33:33;10.60;99.90
7216;DHT22;3649;48.798;9.798;2022-11-20T07:36:00;10.70;99.90
7216;DHT22;3649;48.798;9.798;2022-11-20T07:38:28;10.60;99.90
7216;DHT22;3649;48.798;9.798;2022-11-20T07:40:55;10.60;99.90
7216;DHT22;3649;48.798;9.798;2022-11-20T07:43:24;10.60;99.90
7216;DHT22;3649;48.798;9.798;2022-11-20T07:45:51;10.60;99.90
7216;DHT22;3649;48.798;9.798;2022-11-20T07:48:18;10.60;99.90
7216;DHT22;3649;48.798;9.798;2022-11-20T07:50:45;10.70;99.90
7216;DHT22;3649;48.798;9.798;2022-11-20T07:53:12;10.60;99.90
7216;DHT22;3649;48.798;9.798;2022-11-20T07:55:40;10.60;99.90
7216;DHT22;3649;48.798;9.798;2022-11-20T07:58:07;10.60;99.90
7216;DHT22;3649;48.798;9.798;2022-11-20T08:00:33;10.60;99.90
7216;DHT22;3649;48.798;9.798;2022-11-20T08:03:05;10.60;99.90
7216;DHT22;3649;48.798;9.798;2022-11-20T08:05:33;10.60;99.90
7216;DHT22;3649;48.798;9.798;2022-11-20T08:07:59;10.60;99.90
7216;DHT22;3649;48.798;9.798;2022-11-20T08:10:26;10.70;99.90
7216;DHT22;3649;48.798;9.798;2022-11-20T08:12:53;10.70;99.90
7216;DHT22;3649;48.798;9.798;2022-11-20T08:15:39;10.70;99.90
7216;DHT22;3649;48.798;9.798;2022-11-20T08:18:08;10.80;99.90
7216;DHT22;3649;48.798;9.798;2022-11-20T08:20:57;10.80;99.90
7216;DHT22;3649;48.798;9.798;2022-11-20T08:23:24;10.80;99.90
7216;DHT22;3649;48.798;9.798;2022-11-20T08:25:51;10.70;99.90
7216;DHT22;3649;48.798;9.798;2022-11-20T08:28:18;11.10;99.90
7216;DHT22;3649;48.798;9.798;2022-11-20T08:30:48;10.70;99.90
7216;DHT22;3649;48.798;9.798;2022-11-20T08:33:15;10.70;99.90
7216;DHT22;3649;48.798;9.798;2022-11-20T08:35:47;10.80;99.90
7216;DHT22;3649;48.798;9.798;2022-11-20T08:38:17;10.80;99.90
7216;DHT22;3649;48.798;9.798;2022-11-20T08:40:43;10.90;99.90
7216;DHT22;3649;48.798;9.798;2022-11-20T08:43:33;10.90;99.90
7216;DHT22;3649;48.798;9.798;2022-11-20T08:46:00;11.10;99.90
7216;DHT22;3649;48.798;9.798;2022-11-20T08:48:27;10.80;99.90
7216;DHT22;3649;48.798;9.798;2022-11-20T08:50:53;10.70;99.90
7216;DHT22;3649;48.798;9.798;2022-11-20T08:53:23;10.80;99.90
7216;DHT22;3649;48.798;9.798;2022-11-20T08:55:50;10.90;99.90
7216;DHT22;3649;48.798;9.798;2022-11-20T08:58:17;10.90;99.90
7216;DHT22;3649;48.798;9.798;2022-11-20T09:00:44;10.80;99.90
7216;DHT22;3649;48.798;9.798;2022-11-20T09:03:10;10.90;99.90
7216;DHT22;3649;48.798;9.798;2022-11-20T09:05:39;10.90;99.90
7216;DHT22;3649;48.798;9.798;2022-11-20T09:08:06;10.90;99.90
7216;DHT22;3649;48.798;9.798;2022-11-20T09:10:33;10.90;99.90
7216;DHT22;3649;48.798;9.798;2022-11-20T09:13:00;10.90;99.90
7216;DHT22;3649;48.798;9.798;2022-11-20T09:15:28;11.00;99.90
7216;DHT22;3649;48.798;9.798;2022-11-20T09:17:58;10.50;99.90
7216;DHT22;3649;48.798;9.798;2022-11-20T09:20:27;10.90;99.90
7216;DHT22;3649;48.798;9.798;2022-11-20T09:22:55;11.00;99.90
7216;DHT22;3649;48.798;9.798;2022-11-20T09:25:22;11.00;99.90
7216;DHT22;3649;48.798;9.798;2022-11-20T09:27:55;11.00;99.90
7216;DHT22;3649;48.798;9.798;2022-11-20T09:30:22;11.10;99.90
7216;DHT22;3649;48.798;9.798;2022-11-20T09:32:49;11.10;99.90
7216;DHT22;3649;48.798;9.798;2022-11-20T09:35:16;11.10;99.90
7216;DHT22;3649;48.798;9.798;2022-11-20T09:37:44;11.00;99.90
7216;DHT22;3649;48.798;9.798;2022-11-20T09:40:22;11.00;99.90
7216;DHT22;3649;48.798;9.798;2022-11-20T09:46:14;11.00;99.90
7216;DHT22;3649;48.798;9.798;2022-11-20T09:48:53;11.00;99.90
7216;DHT22;3649;48.798;9.798;2022-11-20T09:51:28;11.00;99.90
7216;DHT22;3649;48.798;9.798;2022-11-20T09:54:20;11.00;99.90
7216;DHT22;3649;48.798;9.798;2022-11-20T09:57:17;10.90;99.90
7216;DHT22;3649;48.798;9.798;2022-11-20T10:00:00;11.00;99.90
7216;DHT22;3649;48.798;9.798;2022-11-20T10:02:34;11.00;99.90
7216;DHT22;3649;48.798;9.798;2022-11-20T10:05:04;10.90;99.90
7216;DHT22;3649;48.798;9.798;2022-11-20T10:07:41;11.00;99.90
7216;DHT22;3649;48.798;9.798;2022-11-20T10:10:18;11.10;99.90
7216;DHT22;3649;48.798;9.798;2022-11-20T10:15:41;10.90;99.90
7216;DHT22;3649;48.798;9.798;2022-11-20T10:18:36;11.00;99.90
7216;DHT22;3649;48.798;9.798;2022-11-20T10:21:35;11.00;99.90
7216;DHT22;3649;48.798;9.798;2022-11-20T10:24:10;11.00;99.90
7216;DHT22;3649;48.798;9.798;2022-11-20T10:29:33;10.80;99.90
7216;DHT22;3649;48.798;9.798;2022-11-20T10:32:04;10.70;99.90
7216;DHT22;3649;48.798;9.798;2022-11-20T10:34:45;10.80;99.90
7216;DHT22;3649;48.798;9.798;2022-11-20T10:37:22;10.70;99.90
7216;DHT22;3649;48.798;9.798;2022-11-20T10:50:36;10.90;99.90
7216;DHT22;3649;48.798;9.798;2022-11-20T10:53:22;10.80;99.90
7216;DHT22;3649;48.798;9.798;2022-11-20T10:56:00;10.80;99.90
7216;DHT22;3649;48.798;9.798;2022-11-20T10:58:42;10.90;99.90
7216;DHT22;3649;48.798;9.798;2022-11-20T11:01:18;10.70;99.90
7216;DHT22;3649;48.798;9.798;2022-11-20T11:03:46;10.60;99.90
7216;DHT22;3649;48.798;9.798;2022-11-20T11:06:40;10.60;99.90
7216;DHT22;3649;48.798;9.798;2022-11-20T11:09:16;10.60;99.90
7216;DHT22;3649;48.798;9.798;2022-11-20T11:11:43;10.50;99.90
7216;DHT22;3649;48.798;9.798;2022-11-20T11:14:13;11.00;99.90
7216;DHT22;3649;48.798;9.798;2022-11-20T11:16:54;10.60;99.90
7216;DHT22;3649;48.798;9.798;2022-11-20T11:19:21;10.50;99.90
7216;DHT22;3649;48.798;9.798;2022-11-20T11:21:54;11.00;99.90
7216;DHT22;3649;48.798;9.798;2022-11-20T11:24:26;10.50;99.90
7216;DHT22;3649;48.798;9.798;2022-11-20T11:27:13;10.50;99.90
7216;DHT22;3649;48.798;9.798;2022-11-20T11:29:45;10.40;99.90
7216;DHT22;3649;48.798;9.798;2022-11-20T11:32:14;10.40;99.90
7216;DHT22;3649;48.798;9.798;2022-11-20T11:34:42;10.40;99.90
7216;DHT22;3649;48.798;9.798;2022-11-20T11:37:20;10.40;99.90
7216;DHT22;3649;48.798;9.798;2022-11-20T11:39:51;10.40;99.90
7216;DHT22;3649;48.798;9.798;2022-11-20T11:42:50;10.40;99.90
7216;DHT22;3649;48.798;9.798;2022-11-20T11:45:18;10.50;99.90
7216;DHT22;3649;48.798;9.798;2022-11-20T11:47:47;10.40;99.90
7216;DHT22;3649;48.798;9.798;2022-11-20T11:50:23;10.40;99.90
7216;DHT22;3649;48.798;9.798;2022-11-20T11:55:44;10.50;99.90
7216;DHT22;3649;48.798;9.798;2022-11-20T11:58:33;10.50;99.90
7216;DHT22;3649;48.798;9.798;2022-11-20T12:01:08;10.50;99.90
7216;DHT22;3649;48.798;9.798;2022-11-20T12:03:42;10.50;99.90
7216;DHT22;3649;48.798;9.798;2022-11-20T12:06:15;10.50;99.90
7216;DHT22;3649;48.798;9.798;2022-11-20T12:11:24;10.50;99.90
7216;DHT22;3649;48.798;9.798;2022-11-20T12:13:58;10.50;99.90
7216;DHT22;3649;48.798;9.798;2022-11-20T12:16:25;10.60;99.90
7216;DHT22;3649;48.798;9.798;2022-11-20T12:18:52;10.60;99.90
7216;DHT22;3649;48.798;9.798;2022-11-20T12:30:10;10.70;99.90
7216;DHT22;3649;48.798;9.798;2022-11-20T12:40:32;10.90;99.90
7216;DHT22;3649;48.798;9.798;2022-11-20T12:43:23;11.00;99.90
7216;DHT22;3649;48.798;9.798;2022-11-20T12:51:57;11.10;99.90
7216;DHT22;3649;48.798;9.798;2022-11-20T12:57:29;11.20;99.90
7216;DHT22;3649;48.798;9.798;2022-11-20T13:00:20;11.40;99.90
7216;DHT22;3649;48.798;9.798;2022-11-20T13:08:16;11.40;99.90
7216;DHT22;3649;48.798;9.798;2022-11-20T13:16:33;11.50;99.90
7216;DHT22;3649;48.798;9.798;2022-11-20T13:19:03;11.50;99.90
7216;DHT22;3649;48.798;9.798;2022-11-20T13:21:42;11.50;99.90
7216;DHT22;3649;48.798;9.798;2022-11-20T13:26:47;11.50;99.90
7216;DHT22;3649;48.798;9.798;2022-11-20T13:29:18;11.60;99.90
7216;DHT22;3649;48.798;9.798;2022-11-20T13:31:47;11.60;99.90
7216;DHT22;3649;48.798;9.798;2022-11-20T13:34:24;12.00;99.90
7216;DHT22;3649;48.798;9.798;2022-11-20T13:36:54;11.60;99.90
7216;DHT22;3649;48.798;9.798;2022-11-20T13:39:29;11.60;99.90
7216;DHT22;3649;48.798;9.798;2022-11-20T13:41:58;11.50;99.90
7216;DHT22;3649;48.798;9.798;2022-11-20T13:46:55;11.60;99.90
7216;DHT22;3649;48.798;9.798;2022-11-20T13:49:37;11.60;99.90
7216;DHT22;3649;48.798;9.798;2022-11-20T13:52:33;11.40;99.90
7216;DHT22;3649;48.798;9.798;2022-11-20T13:55:31;11.50;99.90
7216;DHT22;3649;48.798;9.798;2022-11-20T13:58:30;11.50;99.90
7216;DHT22;3649;48.798;9.798;2022-11-20T14:01:11;11.50;99.90
7216;DHT22;3649;48.798;9.798;2022-11-20T14:03:40;11.60;99.90
7216;DHT22;3649;48.798;9.798;2022-11-20T14:06:30;11.60;99.90
7216;DHT22;3649;48.798;9.798;2022-11-20T14:08:59;11.60;99.90
7216;DHT22;3649;48.798;9.798;2022-11-20T14:11:28;11.60;99.90
7216;DHT22;3649;48.798;9.798;2022-11-20T14:16:28;11.70;99.90
7216;DHT22;3649;48.798;9.798;2022-11-20T14:18:55;11.70;99.90
7216;DHT22;3649;48.798;9.798;2022-11-20T14:21:28;11.70;99.90
7216;DHT22;3649;48.798;9.798;2022-11-20T14:24:05;11.60;99.90
7216;DHT22;3649;48.798;9.798;2022-11-20T14:26:33;11.60;99.90
7216;DHT22;3649;48.798;9.798;2022-11-20T14:29:00;11.70;99.90
7216;DHT22;3649;48.798;9.798;2022-11-20T14:31:27;11.70;99.90
7216;DHT22;3649;48.798;9.798;2022-11-20T14:33:55;11.70;99.90
7216;DHT22;3649;48.798;9.798;2022-11-20T14:36:24;12.30;99.90
7216;DHT22;3649;48.798;9.798;2022-11-20T14:38:52;11.60;99.90
7216;DHT22;3649;48.798;9.798;2022-11-20T14:41:22;11.70;99.90
7216;DHT22;3649;48.798;9.798;2022-11-20T14:43:58;11.70;99.90
7216;DHT22;3649;48.798;9.798;2022-11-20T14:46:26;11.70;99.90
7216;DHT22;3649;48.798;9.798;2022-11-20T14:48:56;11.60;99.90
7216;DHT22;3649;48.798;9.798;2022-11-20T14:51:37;11.60;99.90
7216;DHT22;3649;48.798;9.798;2022-11-20T14:54:18;11.60;99.90
7216;DHT22;3649;48.798;9.798;2022-11-20T14:57:02;11.80;99.90
7216;DHT22;3649;48.798;9.798;2022-11-20T14:59:34;11.60;99.90
7216;DHT22;3649;48.798;9.798;2022-11-20T15:02:03;11.60;99.90
7216;DHT22;3649;48.798;9.798;2022-11-20T15:04:30;11.60;99.90
7216;DHT22;3649;48.798;9.798;2022-11-20T15:07:00;12.50;99.90
7216;DHT22;3649;48.798;9.798;2022-11-20T15:09:27;11.40;99.90
7216;DHT22;3649;48.798;9.798;2022-11-20T15:11:56;11.50;99.90
7216;DHT22;3649;48.798;9.798;2022-11-20T15:14:25;11.40;99.90
7216;DHT22;3649;48.798;9.798;2022-11-20T15:16:53;11.40;99.90
7216;DHT22;3649;48.798;9.798;2022-11-20T15:19:22;11.40;99.90
7216;DHT22;3649;48.798;9.798;2022-11-20T15:21:50;11.30;99.90
7216;DHT22;3649;48.798;9.798;2022-11-20T15:24:17;11.70;99.90
7216;DHT22;3649;48.798;9.798;2022-11-20T15:26:45;11.30;99.90
7216;DHT22;3649;48.798;9.798;2022-11-20T15:29:14;11.30;99.90
7216;DHT22;3649;48.798;9.798;2022-11-20T15:31:45;11.30;99.90
7216;DHT22;3649;48.798;9.798;2022-11-20T15:34:15;11.30;99.90
7216;DHT22;3649;48.798;9.798;2022-11-20T15:36:43;11.20;99.90
7216;DHT22;3649;48.798;9.798;2022-11-20T15:39:10;11.30;99.90
7216;DHT22;3649;48.798;9.798;2022-11-20T15:41:38;11.20;99.90
7216;DHT22;3649;48.798;9.798;2022-11-20T15:44:05;11.20;99.90
7216;DHT22;3649;48.798;9.798;2022-11-20T15:46:35;11.20;99.90
7216;DHT22;3649;48.798;9.798;2022-11-20T15:49:05;11.20;99.90
7216;DHT22;3649;48.798;9.798;2022-11-20T15:51:33;11.20;99.90
7216;DHT22;3649;48.798;9.798;2022-11-20T15:54:03;11.20;99.90
7216;DHT22;3649;48.798;9.798;2022-11-20T15:56:35;11.20;99.90
7216;DHT22;3649;48.798;9.798;2022-11-20T15:59:02;11.20;99.90
7216;DHT22;3649;48.798;9.798;2022-11-20T16:01:29;11.20;99.90
7216;DHT22;3649;48.798;9.798;2022-11-20T16:03:56;11.20;99.90
7216;DHT22;3649;48.798;9.798;2022-11-20T16:06:22;11.20;99.90
7216;DHT22;3649;48.798;9.798;2022-11-20T16:08:49;11.20;99.90
7216;DHT22;3649;48.798;9.798;2022-11-20T16:11:17;11.20;99.90
7216;DHT22;3649;48.798;9.798;2022-11-20T16:13:44;11.20;99.90
7216;DHT22;3649;48.798;9.798;2022-11-20T16:16:33;11.30;99.90
7216;DHT22;3649;48.798;9.798;2022-11-20T16:19:00;11.30;99.90
7216;DHT22;3649;48.798;9.798;2022-11-20T16:21:27;11.40;99.90
7216;DHT22;3649;48.798;9.798;2022-11-20T16:24:02;11.30;99.90
7216;DHT22;3649;48.798;9.798;2022-11-20T16:26:29;11.20;99.90
7216;DHT22;3649;48.798;9.798;2022-11-20T16:28:57;11.20;99.90
7216;DHT22;3649;48.798;9.798;2022-11-20T16:31:24;11.20;99.90
7216;DHT22;3649;48.798;9.798;2022-11-20T16:33:53;11.20;99.90
7216;DHT22;3649;48.798;9.798;2022-11-20T16:36:21;11.10;99.90
7216;DHT22;3649;48.798;9.798;2022-11-20T16:38:59;11.10;99.90
7216;DHT22;3649;48.798;9.798;2022-11-20T16:41:29;11.10;99.90
7216;DHT22;3649;48.798;9.798;2022-11-20T16:43:58;11.10;99.90
7216;DHT22;3649;48.798;9.798;2022-11-20T16:46:28;11.20;99.90
7216;DHT22;3649;48.798;9.798;2022-11-20T16:48:59;11.00;99.90
7216;DHT22;3649;48.798;9.798;2022-11-20T16:51:27;11.00;99.90
7216;DHT22;3649;48.798;9.798;2022-11-20T16:53:55;10.90;99.90
7216;DHT22;3649;48.798;9.798;2022-11-20T16:56:24;10.90;99.90
7216;DHT22;3649;48.798;9.798;2022-11-20T16:58:53;10.90;99.90
7216;DHT22;3649;48.798;9.798;2022-11-20T17:01:21;10.90;99.90
7216;DHT22;3649;48.798;9.798;2022-11-20T17:03:59;11.60;99.90
7216;DHT22;3649;48.798;9.798;2022-11-20T17:06:28;11.60;99.90
7216;DHT22;3649;48.798;9.798;2022-11-20T17:08:56;10.90;99.90
7216;DHT22;3649;48.798;9.798;2022-11-20T17:11:24;11.30;99.90
7216;DHT22;3649;48.798;9.798;2022-11-20T17:13:54;11.00;99.90
7216;DHT22;3649;48.798;9.798;2022-11-20T17:16:22;10.80;99.90
7216;DHT22;3649;48.798;9.798;2022-11-20T17:18:50;11.10;99.90
7216;DHT22;3649;48.798;9.798;2022-11-20T17:21:17;10.70;99.90
7216;DHT22;3649;48.798;9.798;2022-11-20T17:23:45;10.70;99.90
7216;DHT22;3649;48.798;9.798;2022-11-20T17:26:18;10.80;99.90
7216;DHT22;3649;48.798;9.798;2022-11-20T17:28:45;10.80;99.90
7216;DHT22;3649;48.798;9.798;2022-11-20T17:31:15;10.80;99.90
7216;DHT22;3649;48.798;9.798;2022-11-20T17:33:43;10.70;99.90
7216;DHT22;3649;48.798;9.798;2022-11-20T17:36:12;10.80;99.90